Time;durP1;ratioP1;P1;durP2;ratioP2;P2;SDS_P1;SDS_P2;PMS_P1;PMS_P2;Temp;Humidity;BMP_temperature;BMP_pressure;BME280_temperature;BME280_humidity;BME280_pressure;Samples;Min_cycle;Max_cycle;Signal;HPM_P1;HPM_P2
2022/01/25 00:15:07;;;;;;;13.53;7.60;;;4.60;99.90;;;;;;5032180;28;20197;-78
2022/01/25 00:31:03;;;;;;;12.17;7.13;;;4.40;99.90;;;;;;5034292;28;20169;-77
2022/01/25 00:33:32;;;;;;;10.63;7.27;;;4.70;99.90;;;;;;5032133;28;20644;-84
2022/01/25 00:35:59;;;;;;;13.27;7.67;;;4.30;99.90;;;;;;5033526;28;20178;-77
2022/01/25 00:38:25;;;;;;;11.70;6.40;;;4.10;99.90;;;;;;5015528;28;20220;-80
2022/01/25 00:40:51;;;;;;;12.27;7.10;;;4.10;99.90;;;;;;5015652;28;20198;-78
2022/01/25 00:43:17;;;;;;;11.43;7.20;;;4.40;99.90;;;;;;5048464;28;20177;-78
2022/01/25 00:45:46;;;;;;;14.40;7.67;;;4.60;99.90;;;;;;5034062;28;20527;-85
2022/01/25 00:48:18;;;;;;;13.13;7.53;;;4.50;99.90;;;;;;4998339;28;20174;-78
2022/01/25 00:50:45;;;;;;;11.60;6.70;;;4.40;99.90;;;;;;5000898;28;20708;-76
2022/01/25 00:55:55;;;;;;;10.07;6.87;;;4.60;99.90;;;;;;5018365;28;20170;-78
2022/01/25 00:58:21;;;;;;;9.73;6.50;;;4.60;99.90;;;;;;4999758;28;20680;-83
2022/01/25 01:00:47;;;;;;;13.83;8.53;;;4.60;99.90;;;;;;4999181;28;20205;-77
2022/01/25 01:03:13;;;;;;;12.23;6.83;;;4.70;99.90;;;;;;4999407;28;20178;-79
2022/01/25 01:05:40;;;;;;;11.10;6.93;;;4.50;99.90;;;;;;5015532;28;20236;-78
2022/01/25 01:08:06;;;;;;;11.33;7.20;;;4.50;99.90;;;;;;5000121;28;20257;-85
2022/01/25 01:10:32;;;;;;;14.33;7.13;;;4.50;99.90;;;;;;4982318;28;20277;-78
2022/01/25 01:13:27;;;;;;;13.83;7.57;;;4.50;99.90;;;;;;4999196;28;20178;-78
2022/01/25 01:16:35;;;;;;;15.73;7.83;;;4.50;99.90;;;;;;5005543;28;20212;-85
2022/01/25 01:32:01;;;;;;;15.10;7.80;;;4.10;99.90;;;;;;4998020;28;20205;-77
2022/01/25 01:47:43;;;;;;;16.30;7.73;;;4.20;99.90;;;;;;5026277;28;20208;-77
2022/01/25 01:50:15;;;;;;;13.57;8.70;;;4.10;99.90;;;;;;5018086;28;20173;-84
2022/01/25 01:52:41;;;;;;;14.13;8.23;;;4.10;99.90;;;;;;5031186;28;20177;-79
2022/01/25 01:55:08;;;;;;;12.13;8.00;;;3.90;99.90;;;;;;5032807;28;20660;-78
2022/01/25 01:57:34;;;;;;;14.40;8.60;;;3.90;99.90;;;;;;5015251;28;20178;-84
2022/01/25 02:00:01;;;;;;;14.30;8.03;;;4.00;99.90;;;;;;4998587;28;20205;-77
2022/01/25 02:02:27;;;;;;;14.27;8.03;;;4.00;99.90;;;;;;4998394;28;20186;-86
2022/01/25 02:04:53;;;;;;;15.17;7.77;;;4.00;99.90;;;;;;5054215;28;20168;-84
2022/01/25 02:07:20;;;;;;;18.97;8.30;;;3.80;99.90;;;;;;5050891;28;20555;-85
2022/01/25 02:09:45;;;;;;;14.23;7.70;;;3.70;99.90;;;;;;5051456;28;20177;-76
2022/01/25 02:12:11;;;;;;;12.13;7.70;;;3.90;99.90;;;;;;5019525;28;20232;-84
2022/01/25 02:14:40;;;;;;;15.37;8.20;;;4.10;99.90;;;;;;5032033;28;20185;-84
2022/01/25 02:17:26;;;;;;;13.13;8.00;;;4.10;99.90;;;;;;5031532;28;20901;-83
2022/01/25 02:22:56;;;;;;;13.17;8.30;;;4.00;99.90;;;;;;5031768;28;20251;-79
2022/01/25 02:25:23;;;;;;;12.20;7.87;;;4.00;99.90;;;;;;5014598;28;20184;-78
2022/01/25 02:27:49;;;;;;;10.83;7.27;;;4.10;99.90;;;;;;5047500;28;20170;-78
2022/01/25 02:30:15;;;;;;;14.20;7.90;;;3.80;99.90;;;;;;5047498;28;20554;-78
2022/01/25 02:32:41;;;;;;;12.63;7.43;;;3.70;99.90;;;;;;5031845;28;20181;-85
2022/01/25 02:35:08;;;;;;;13.50;7.63;;;3.30;99.90;;;;;;5036172;28;20173;-85
2022/01/25 02:37:34;;;;;;;12.87;7.30;;;3.20;99.90;;;;;;5035559;28;20228;-84
2022/01/25 02:40:00;;;;;;;11.60;7.07;;;3.00;99.90;;;;;;5050086;28;20198;-85
2022/01/25 02:42:26;;;;;;;11.20;7.30;;;3.00;99.90;;;;;;5035602;28;20632;-87
2022/01/25 02:44:52;;;;;;;11.67;7.07;;;3.40;99.90;;;;;;4984292;28;20174;-84
2022/01/25 02:50:04;;;;;;;11.00;7.37;;;3.90;99.90;;;;;;5033079;28;20197;-78
2022/01/25 02:52:32;;;;;;;12.80;8.10;;;3.70;99.90;;;;;;5033886;28;20185;-85
2022/01/25 02:54:58;;;;;;;14.90;8.73;;;3.40;99.90;;;;;;5002009;28;20231;-77
2022/01/25 02:57:25;;;;;;;12.87;7.60;;;3.70;99.90;;;;;;5033599;28;20199;-78
2022/01/25 02:59:51;;;;;;;12.03;8.27;;;3.70;99.90;;;;;;5035041;28;20206;-82
2022/01/25 03:02:18;;;;;;;14.73;8.17;;;3.80;99.90;;;;;;5017637;28;20186;-78
2022/01/25 03:04:44;;;;;;;13.37;8.30;;;3.80;99.90;;;;;;5017180;28;20255;-78
2022/01/25 03:07:10;;;;;;;15.33;8.20;;;3.70;99.90;;;;;;5051689;28;20182;-77
2022/01/25 03:09:40;;;;;;;13.90;8.13;;;3.80;99.90;;;;;;5034326;28;20204;-78
2022/01/25 03:12:07;;;;;;;16.97;9.13;;;3.90;99.90;;;;;;5034437;28;20185;-78
2022/01/25 03:14:36;;;;;;;15.73;8.93;;;3.90;99.90;;;;;;5034489;28;20182;-79
2022/01/25 03:22:59;;;;;;;14.80;8.70;;;3.80;99.90;;;;;;5035809;28;20224;-79
2022/01/25 03:24:59;;;;;;;14.17;9.13;;;3.80;99.90;;;;;;5030359;28;20186;-85
2022/01/25 03:27:24;;;;;;;15.63;9.03;;;3.60;99.90;;;;;;5017470;28;20231;-84
2022/01/25 03:29:50;;;;;;;15.83;8.80;;;3.80;99.90;;;;;;5050218;28;20185;-85
2022/01/25 03:32:16;;;;;;;13.77;8.63;;;3.90;99.90;;;;;;5003352;28;20216;-78
2022/01/25 03:34:42;;;;;;;16.97;8.60;;;4.00;99.90;;;;;;4998558;28;20186;-78
2022/01/25 03:37:08;;;;;;;16.83;9.23;;;3.70;99.90;;;;;;5048455;28;20205;-84
2022/01/25 03:39:34;;;;;;;18.17;9.83;;;3.30;99.90;;;;;;5033199;28;20210;-78
2022/01/25 03:42:00;;;;;;;14.23;9.13;;;3.20;99.90;;;;;;5049614;28;20272;-84
2022/01/25 03:44:25;;;;;;;16.57;9.07;;;3.40;99.90;;;;;;5032322;28;20170;-84
2022/01/25 03:52:03;;;;;;;13.10;7.47;;;3.80;99.90;;;;;;5033048;28;20205;-83
2022/01/25 03:54:29;;;;;;;17.17;8.63;;;3.80;99.90;;;;;;5034086;28;20173;-85
2022/01/25 03:56:55;;;;;;;13.93;8.80;;;3.80;99.90;;;;;;5034023;28;20849;-84
2022/01/25 03:59:21;;;;;;;13.13;8.90;;;3.50;99.90;;;;;;5015998;28;20190;-77
2022/01/25 04:01:46;;;;;;;12.63;8.00;;;3.50;99.90;;;;;;5049717;28;20162;-82
2022/01/25 04:04:16;;;;;;;18.30;9.67;;;3.30;99.90;;;;;;5017365;28;20201;-84
2022/01/25 04:06:47;;;;;;;13.90;8.67;;;3.30;99.90;;;;;;5032191;28;20239;-77
2022/01/25 04:09:13;;;;;;;11.97;8.13;;;3.30;99.90;;;;;;5033563;28;20521;-78
2022/01/25 04:11:39;;;;;;;17.07;8.90;;;3.60;99.90;;;;;;5032642;28;20352;-78
2022/01/25 04:14:05;;;;;;;14.63;9.03;;;3.70;99.90;;;;;;5049105;28;20677;-77
2022/01/25 04:17:20;;;;;;;16.23;8.87;;;3.60;99.90;;;;;;5032155;28;20255;-78
2022/01/25 04:19:29;;;;;;;16.60;9.07;;;3.70;99.90;;;;;;5031814;28;20182;-85
2022/01/25 04:27:25;;;;;;;13.40;8.70;;;3.80;99.90;;;;;;5018780;28;20170;-84
2022/01/25 04:29:52;;;;;;;13.90;8.53;;;3.80;99.90;;;;;;5032932;28;20546;-85
2022/01/25 04:32:20;;;;;;;14.70;8.90;;;3.80;99.90;;;;;;5032031;28;20181;-84
2022/01/25 04:35:08;;;;;;;13.13;8.03;;;3.50;99.90;;;;;;5049137;28;20694;-78
2022/01/25 04:49:13;;;;;;;15.30;9.10;;;3.70;99.90;;;;;;5011908;28;20182;-79
2022/01/25 04:57:29;;;;;;;13.73;8.63;;;3.50;99.90;;;;;;5015439;28;20264;-85
2022/01/25 04:59:30;;;;;;;15.60;9.20;;;3.60;99.90;;;;;;5027894;28;20283;-79
2022/01/25 05:02:03;;;;;;;13.67;8.00;;;3.70;99.90;;;;;;5000452;28;20201;-78
2022/01/25 05:04:33;;;;;;;13.30;8.60;;;3.50;99.90;;;;;;5032441;28;20182;-85
2022/01/25 05:07:11;;;;;;;13.77;9.00;;;3.60;99.90;;;;;;5049087;28;20159;-85
2022/01/25 05:09:38;;;;;;;14.73;8.77;;;3.60;99.90;;;;;;5001866;28;20185;-79
2022/01/25 05:12:05;;;;;;;19.30;9.97;;;3.50;99.90;;;;;;5047742;28;20260;-85
2022/01/25 05:14:35;;;;;;;12.97;8.37;;;3.20;99.90;;;;;;4999455;28;20184;-78
2022/01/25 05:17:05;;;;;;;15.13;8.57;;;3.30;99.90;;;;;;5031350;28;20189;-85
2022/01/25 05:22:26;;;;;;;15.17;8.97;;;3.50;99.90;;;;;;5031287;28;20170;-78
2022/01/25 05:24:53;;;;;;;14.00;8.40;;;3.60;99.90;;;;;;5000223;28;20177;-77
2022/01/25 05:27:22;;;;;;;14.00;8.93;;;3.60;99.90;;;;;;5031010;28;20565;-84
2022/01/25 05:29:48;;;;;;;11.97;7.70;;;3.70;99.90;;;;;;5031638;28;20182;-78
2022/01/25 05:32:15;;;;;;;13.77;8.30;;;3.70;99.90;;;;;;5030639;28;20230;-78
2022/01/25 05:34:41;;;;;;;12.27;8.83;;;3.70;99.90;;;;;;5031386;28;20182;-84
2022/01/25 05:37:07;;;;;;;15.60;9.57;;;3.60;99.90;;;;;;5048687;28;20641;-84
2022/01/25 05:39:37;;;;;;;16.10;8.40;;;3.60;99.90;;;;;;5031028;28;20275;-84
2022/01/25 05:47:27;;;;;;;14.90;8.80;;;3.20;99.90;;;;;;4999593;28;20182;-79
2022/01/25 05:49:52;;;;;;;13.20;8.67;;;3.00;99.90;;;;;;5015425;28;20262;-84
2022/01/25 05:52:18;;;;;;;18.70;8.80;;;3.10;99.90;;;;;;5047950;28;20257;-79
2022/01/25 05:54:44;;;;;;;12.20;8.23;;;3.30;99.90;;;;;;5015007;28;20185;-86
2022/01/25 05:57:11;;;;;;;15.03;9.17;;;3.30;99.90;;;;;;5015141;28;20645;-86
2022/01/25 05:59:37;;;;;;;16.63;9.20;;;3.30;99.90;;;;;;4984676;28;20206;-84
2022/01/25 06:02:05;;;;;;;13.23;8.33;;;3.60;99.90;;;;;;5031488;28;20241;-77
2022/01/25 06:04:31;;;;;;;14.57;8.60;;;3.60;99.90;;;;;;5031979;28;20220;-78
2022/01/25 06:06:57;;;;;;;15.57;9.20;;;3.60;99.90;;;;;;5029908;28;20260;-78
2022/01/25 06:09:24;;;;;;;13.63;8.03;;;3.60;99.90;;;;;;4998394;28;20264;-86
2022/01/25 06:11:52;;;;;;;14.37;8.33;;;3.60;99.90;;;;;;5031698;28;20186;-78
2022/01/25 06:14:19;;;;;;;14.10;8.90;;;3.70;99.90;;;;;;5032332;28;20180;-84
2022/01/25 06:16:44;;;;;;;19.97;9.27;;;3.50;99.90;;;;;;5015008;28;20221;-78
2022/01/25 06:19:10;;;;;;;19.10;8.90;;;3.60;99.90;;;;;;5031384;28;20170;-77
2022/01/25 06:21:36;;;;;;;14.80;8.57;;;3.50;99.90;;;;;;5014172;28;20182;-77
2022/01/25 06:24:02;;;;;;;14.53;8.50;;;3.50;99.90;;;;;;5030722;28;20206;-84
2022/01/25 06:26:28;;;;;;;14.40;8.57;;;3.60;99.90;;;;;;5031752;28;20166;-79
2022/01/25 06:28:54;;;;;;;16.03;9.87;;;3.60;99.90;;;;;;5046456;28;20177;-84
2022/01/25 06:31:20;;;;;;;16.80;8.67;;;3.40;99.90;;;;;;5005159;28;20265;-82
2022/01/25 06:33:47;;;;;;;16.90;8.73;;;3.50;99.90;;;;;;5003144;28;20178;-84
2022/01/25 06:36:13;;;;;;;15.87;9.53;;;3.50;99.90;;;;;;5013305;28;20235;-81
2022/01/25 06:38:39;;;;;;;14.10;7.87;;;3.60;99.90;;;;;;5012671;28;20268;-77
2022/01/25 06:41:05;;;;;;;14.13;8.60;;;3.50;99.90;;;;;;5025781;28;20270;-77
2022/01/25 06:43:31;;;;;;;17.50;9.57;;;3.40;99.90;;;;;;5010499;28;20192;-82
2022/01/25 06:46:01;;;;;;;14.77;8.40;;;3.40;99.90;;;;;;5023913;28;20185;-83
2022/01/25 06:48:27;;;;;;;18.17;8.43;;;3.40;99.90;;;;;;5023537;28;20236;-79
2022/01/25 06:50:54;;;;;;;16.30;9.60;;;3.40;99.90;;;;;;5002322;28;20662;-77
2022/01/25 06:53:21;;;;;;;15.47;8.80;;;3.10;99.90;;;;;;5004253;28;20208;-84
2022/01/25 06:55:47;;;;;;;17.77;9.30;;;3.30;99.90;;;;;;4987798;28;20205;-81
2022/01/25 06:58:13;;;;;;;19.07;9.67;;;3.30;99.90;;;;;;5010517;28;20626;-84
2022/01/25 07:00:39;;;;;;;13.83;9.43;;;3.20;99.90;;;;;;5009422;28;20206;-78
2022/01/25 07:03:05;;;;;;;22.50;10.50;;;3.20;99.90;;;;;;4993386;28;20206;-84
2022/01/25 07:05:31;;;;;;;16.70;8.97;;;3.40;99.90;;;;;;5010143;28;20581;-86
2022/01/25 07:07:57;;;;;;;14.17;8.63;;;3.00;99.90;;;;;;5011383;28;20748;-77
2022/01/25 07:10:23;;;;;;;15.30;8.27;;;2.60;99.90;;;;;;4994901;28;20252;-78
2022/01/25 07:12:49;;;;;;;18.93;9.50;;;2.80;99.90;;;;;;5046458;28;20170;-78
2022/01/25 07:15:15;;;;;;;18.03;9.43;;;3.00;99.90;;;;;;5029202;28;20591;-77
2022/01/25 07:17:41;;;;;;;16.77;8.57;;;3.00;99.90;;;;;;5013255;28;20219;-77
2022/01/25 07:20:08;;;;;;;17.73;9.07;;;2.60;99.90;;;;;;5015261;28;20292;-76
2022/01/25 07:22:35;;;;;;;15.40;8.37;;;2.50;99.90;;;;;;5016393;28;20231;-77
2022/01/25 07:25:03;;;;;;;15.13;9.83;;;2.50;99.90;;;;;;5032927;28;20733;-83
2022/01/25 07:27:29;;;;;;;16.90;9.33;;;2.80;99.90;;;;;;5000866;28;20177;-84
2022/01/25 07:29:55;;;;;;;19.47;10.20;;;3.10;99.90;;;;;;5033302;28;20182;-76
2022/01/25 07:32:21;;;;;;;19.73;10.13;;;3.30;99.90;;;;;;4999576;28;20182;-77
2022/01/25 07:34:46;;;;;;;19.73;9.37;;;3.50;99.90;;;;;;5032404;28;20174;-84
2022/01/25 07:37:12;;;;;;;17.30;9.73;;;3.50;99.90;;;;;;5016558;28;20596;-84
2022/01/25 07:39:38;;;;;;;19.87;9.53;;;3.60;99.90;;;;;;5034426;28;20198;-77
2022/01/25 07:42:05;;;;;;;17.53;9.93;;;3.70;99.90;;;;;;5033148;28;20186;-81
2022/01/25 07:44:35;;;;;;;17.50;10.50;;;3.60;99.90;;;;;;5000379;28;20181;-77
2022/01/25 07:47:01;;;;;;;22.80;10.20;;;3.70;99.90;;;;;;5016771;28;20256;-78
2022/01/25 07:49:28;;;;;;;16.40;9.47;;;3.60;99.90;;;;;;5032864;28;20629;-83
2022/01/25 07:51:54;;;;;;;13.00;8.83;;;3.60;99.90;;;;;;5016466;28;20240;-77
2022/01/25 07:54:20;;;;;;;16.83;9.37;;;3.70;99.90;;;;;;5015939;28;20174;-77
2022/01/25 07:56:47;;;;;;;16.67;9.50;;;3.80;99.90;;;;;;5016534;28;20170;-82
2022/01/25 07:59:13;;;;;;;17.50;10.10;;;3.90;99.90;;;;;;5033630;28;20250;-83
2022/01/25 08:01:40;;;;;;;15.50;9.60;;;3.90;99.90;;;;;;5023456;28;20231;-84
2022/01/25 08:04:07;;;;;;;16.97;9.60;;;3.80;99.90;;;;;;4995981;28;20193;-77
2022/01/25 08:06:33;;;;;;;20.83;10.53;;;3.70;99.90;;;;;;4980177;28;20174;-77
2022/01/25 08:09:00;;;;;;;20.43;10.53;;;3.60;99.90;;;;;;5012496;28;20171;-81
2022/01/25 08:11:25;;;;;;;16.73;9.87;;;3.50;99.90;;;;;;5012193;28;20265;-85
2022/01/25 08:13:52;;;;;;;27.80;11.83;;;3.70;99.90;;;;;;4980582;28;20294;-77
2022/01/25 08:16:18;;;;;;;15.70;10.00;;;3.70;99.90;;;;;;5012941;28;20217;-77
2022/01/25 08:18:46;;;;;;;18.33;10.60;;;3.60;99.90;;;;;;4996478;28;20182;-77
2022/01/25 08:21:12;;;;;;;18.50;9.93;;;3.70;99.90;;;;;;4995793;28;20221;-86
2022/01/25 08:23:41;;;;;;;16.07;9.83;;;3.70;99.90;;;;;;4979076;28;20182;-78
2022/01/25 08:26:08;;;;;;;18.57;10.17;;;3.70;99.90;;;;;;4980287;28;20175;-85
2022/01/25 08:28:34;;;;;;;18.83;10.47;;;3.70;99.90;;;;;;5012725;28;21013;-84
2022/01/25 08:31:00;;;;;;;18.50;10.50;;;3.80;99.90;;;;;;5015712;28;20272;-78
2022/01/25 08:33:26;;;;;;;19.03;10.13;;;3.80;99.90;;;;;;5031503;28;20188;-80
2022/01/25 08:35:55;;;;;;;18.20;11.17;;;3.80;99.90;;;;;;5014408;28;20624;-82
2022/01/25 08:38:21;;;;;;;21.73;10.67;;;3.80;99.90;;;;;;4998677;28;20232;-78
2022/01/25 08:40:48;;;;;;;24.13;10.23;;;3.80;99.90;;;;;;5031235;28;20608;-85
2022/01/25 08:43:14;;;;;;;16.97;10.37;;;3.80;99.90;;;;;;4998367;28;20536;-80
2022/01/25 08:45:39;;;;;;;18.67;10.87;;;3.80;99.90;;;;;;5034352;28;20259;-83
2022/01/25 08:48:05;;;;;;;19.27;10.73;;;3.80;99.90;;;;;;4998572;28;20274;-78
2022/01/25 08:50:31;;;;;;;21.17;11.07;;;3.80;99.90;;;;;;5009459;28;20579;-77
2022/01/25 08:52:59;;;;;;;18.47;10.43;;;3.70;99.90;;;;;;5011095;28;20186;-84
2022/01/25 08:55:25;;;;;;;19.77;12.70;;;3.70;99.90;;;;;;4979765;28;20178;-77
2022/01/25 08:57:52;;;;;;;19.53;10.80;;;3.70;99.90;;;;;;4997332;28;20178;-79
2022/01/25 09:00:18;;;;;;;18.57;10.37;;;3.80;99.90;;;;;;5013646;28;20210;-78
2022/01/25 09:02:44;;;;;;;20.23;9.93;;;4.00;99.90;;;;;;4997363;28;20174;-79
2022/01/25 09:05:11;;;;;;;18.40;11.03;;;4.20;99.90;;;;;;5014494;28;20188;-87
2022/01/25 09:07:37;;;;;;;17.67;11.70;;;4.30;99.90;;;;;;5014758;28;20265;-77
2022/01/25 09:10:04;;;;;;;14.77;9.87;;;4.30;99.90;;;;;;4998084;28;20269;-84
2022/01/25 09:12:30;;;;;;;21.57;9.80;;;4.30;99.90;;;;;;5016932;28;20181;-77
2022/01/25 09:14:56;;;;;;;20.17;11.67;;;4.30;99.90;;;;;;5048287;28;20284;-90
2022/01/25 09:17:22;;;;;;;20.00;10.37;;;4.30;99.90;;;;;;4998890;28;20178;-79
2022/01/25 09:19:48;;;;;;;15.93;10.10;;;4.40;99.90;;;;;;5013136;28;20259;-77
2022/01/25 09:22:14;;;;;;;14.27;9.30;;;4.30;99.90;;;;;;5029988;28;20169;-78
2022/01/25 09:24:40;;;;;;;19.37;10.03;;;4.30;99.90;;;;;;5030107;28;20170;-77
2022/01/25 09:27:08;;;;;;;19.97;10.63;;;4.30;99.90;;;;;;5029823;28;20174;-78
2022/01/25 09:29:34;;;;;;;20.97;11.00;;;4.30;99.90;;;;;;5014172;28;20664;-77
2022/01/25 09:32:00;;;;;;;14.43;9.83;;;4.30;99.90;;;;;;5013183;28;20264;-81
2022/01/25 09:34:27;;;;;;;20.80;11.07;;;4.30;99.90;;;;;;5030237;28;20265;-79
2022/01/25 09:36:53;;;;;;;17.63;10.03;;;4.40;99.90;;;;;;4997157;28;20174;-78
2022/01/25 09:39:20;;;;;;;16.63;10.33;;;4.40;99.90;;;;;;5031214;28;20165;-77
2022/01/25 09:41:47;;;;;;;16.43;9.73;;;4.40;99.90;;;;;;4996047;28;20280;-77
2022/01/25 09:44:15;;;;;;;16.20;9.63;;;4.50;99.90;;;;;;5013961;28;20182;-82
2022/01/25 09:46:43;;;;;;;14.97;10.03;;;4.60;99.90;;;;;;5030978;28;20618;-83
2022/01/25 09:49:09;;;;;;;17.60;10.53;;;4.70;99.90;;;;;;5013555;28;20178;-82
2022/01/25 09:51:39;;;;;;;19.07;11.40;;;4.70;99.90;;;;;;5030502;28;20188;-82
2022/01/25 09:54:05;;;;;;;16.30;10.43;;;4.70;99.90;;;;;;5030575;28;20170;-77
2022/01/25 09:56:33;;;;;;;21.17;11.93;;;4.70;99.90;;;;;;5013964;28;20208;-82
2022/01/25 09:59:00;;;;;;;20.20;11.07;;;4.70;99.90;;;;;;5013648;28;20213;-82
2022/01/25 10:01:29;;;;;;;17.73;12.03;;;4.60;99.90;;;;;;5029519;28;20225;-78
2022/01/25 10:03:58;;;;;;;18.30;11.47;;;4.60;99.90;;;;;;5029165;28;20182;-77
2022/01/25 10:06:31;;;;;;;20.63;11.23;;;4.60;99.90;;;;;;5031345;28;20178;-78
2022/01/25 10:08:58;;;;;;;18.47;11.30;;;4.60;99.90;;;;;;5029390;28;20197;-82
2022/01/25 10:11:25;;;;;;;18.90;12.03;;;4.70;99.90;;;;;;5012897;28;20200;-77
2022/01/25 10:13:57;;;;;;;19.00;11.53;;;4.70;99.90;;;;;;5014121;28;20281;-81
2022/01/25 10:16:30;;;;;;;20.80;12.63;;;4.80;99.90;;;;;;5030078;28;20207;-76
2022/01/25 10:19:07;;;;;;;23.87;12.07;;;4.80;99.90;;;;;;5031805;28;20695;-83
2022/01/25 10:21:36;;;;;;;21.07;11.90;;;4.80;99.90;;;;;;5030055;28;20198;-82
2022/01/25 10:24:15;;;;;;;21.07;12.40;;;4.90;99.90;;;;;;5029307;28;20170;-78
2022/01/25 10:26:52;;;;;;;19.57;10.93;;;5.00;99.90;;;;;;5012916;28;20224;-83
2022/01/25 10:29:21;;;;;;;19.53;11.70;;;5.10;99.90;;;;;;5013382;28;20176;-78
2022/01/25 10:31:53;;;;;;;16.93;11.20;;;5.10;99.90;;;;;;5012733;28;20253;-83
2022/01/25 10:34:26;;;;;;;19.83;11.27;;;5.10;99.90;;;;;;5012840;28;20170;-77
2022/01/25 10:36:53;;;;;;;23.67;11.60;;;5.10;99.90;;;;;;5028785;28;20201;-83
2022/01/25 10:39:25;;;;;;;22.50;13.10;;;5.10;99.90;;;;;;5012712;28;20193;-78
2022/01/25 10:42:00;;;;;;;20.47;12.57;;;5.20;99.90;;;;;;5030926;28;20192;-77
2022/01/25 10:44:26;;;;;;;20.07;11.77;;;5.20;99.90;;;;;;5018831;28;20174;-83
2022/01/25 10:46:52;;;;;;;20.77;11.83;;;5.30;99.90;;;;;;5014177;28;20174;-78
2022/01/25 10:49:18;;;;;;;19.80;11.97;;;5.50;99.90;;;;;;4996185;28;20252;-83
2022/01/25 10:51:49;;;;;;;18.37;11.83;;;5.50;99.90;;;;;;5012062;28;20797;-77
2022/01/25 10:54:16;;;;;;;18.77;12.10;;;5.60;99.90;;;;;;5014455;28;20706;-78
2022/01/25 10:56:45;;;;;;;18.57;12.03;;;5.60;99.90;;;;;;4999797;28;20618;-85
2022/01/25 10:59:28;;;;;;;14.80;10.60;;;5.60;99.90;;;;;;5033508;28;20240;-77
2022/01/25 11:02:00;;;;;;;20.10;11.90;;;5.60;99.90;;;;;;5033361;28;20621;-77
2022/01/25 11:04:34;;;;;;;18.37;11.20;;;5.70;99.90;;;;;;5016754;28;20182;-81
2022/01/25 11:07:02;;;;;;;17.83;11.40;;;5.80;99.90;;;;;;5033225;28;20188;-82
2022/01/25 11:09:35;;;;;;;24.40;13.23;;;5.90;99.90;;;;;;5034825;28;20178;-77
2022/01/25 11:12:04;;;;;;;21.80;12.10;;;6.00;99.90;;;;;;5018008;28;20174;-76
2022/01/25 11:17:15;;;;;;;20.07;13.07;;;5.90;99.90;;;;;;5034221;28;20221;-77
2022/01/25 11:19:42;;;;;;;19.57;12.30;;;5.90;99.90;;;;;;5033368;28;20668;-77
2022/01/25 11:22:11;;;;;;;20.73;12.27;;;5.70;99.90;;;;;;5015911;28;20180;-78
2022/01/25 11:24:39;;;;;;;22.40;13.17;;;5.80;99.90;;;;;;5016910;28;20174;-78
2022/01/25 11:27:08;;;;;;;21.37;12.27;;;6.00;99.90;;;;;;5016664;28;20174;-81
2022/01/25 11:29:36;;;;;;;23.67;12.63;;;6.20;99.90;;;;;;5032584;28;20653;-78
2022/01/25 11:32:23;;;;;;;21.67;12.93;;;6.20;99.90;;;;;;4999689;28;20232;-79
2022/01/25 11:34:50;;;;;;;19.10;12.27;;;6.20;99.90;;;;;;5032370;28;20184;-83
2022/01/25 11:37:17;;;;;;;20.47;13.53;;;6.20;99.90;;;;;;5032733;28;20584;-82
2022/01/25 11:40:02;;;;;;;22.87;12.83;;;6.30;99.90;;;;;;5000074;28;20265;-83
2022/01/25 11:42:34;;;;;;;20.93;12.47;;;6.30;99.90;;;;;;5016017;28;20173;-78
2022/01/25 11:45:01;;;;;;;20.53;12.77;;;6.40;99.90;;;;;;5016311;28;20178;-86
2022/01/25 11:47:35;;;;;;;24.90;12.67;;;6.40;99.90;;;;;;5032401;28;20177;-76
2022/01/25 11:50:05;;;;;;;22.40;13.90;;;6.60;99.90;;;;;;5000055;28;20177;-77
2022/01/25 11:52:32;;;;;;;20.37;12.50;;;6.50;99.90;;;;;;4999207;28;20178;-79
2022/01/25 11:55:16;;;;;;;23.03;13.47;;;6.60;99.90;;;;;;4998914;28;20178;-82
2022/01/25 11:57:46;;;;;;;20.60;12.70;;;6.70;99.90;;;;;;5031546;28;20174;-84
2022/01/25 12:00:12;;;;;;;19.90;13.07;;;6.80;99.90;;;;;;5015483;28;20233;-78
2022/01/25 12:02:51;;;;;;;22.23;13.27;;;6.70;99.90;;;;;;5014285;28;20270;-78
2022/01/25 12:05:26;;;;;;;22.20;12.77;;;6.70;99.90;;;;;;5032907;28;20170;-77
2022/01/25 12:08:15;;;;;;;21.00;13.10;;;7.00;99.90;;;;;;4984238;28;20247;-77
2022/01/25 12:10:47;;;;;;;23.53;13.60;;;6.90;99.90;;;;;;5032035;28;20833;-83
2022/01/25 12:13:30;;;;;;;24.30;13.57;;;7.00;99.90;;;;;;5015701;28;20597;-83
2022/01/25 12:16:26;;;;;;;19.60;12.57;;;7.10;99.90;;;;;;5014578;28;20296;-84
2022/01/25 12:18:57;;;;;;;20.37;12.47;;;7.10;99.90;;;;;;5030821;28;20516;-84
2022/01/25 12:21:49;;;;;;;24.53;14.40;;;7.20;99.90;;;;;;5031099;28;20201;-83
2022/01/25 12:24:19;;;;;;;25.20;14.63;;;7.20;99.90;;;;;;5032103;28;20170;-83
2022/01/25 12:27:20;;;;;;;21.03;12.90;;;7.40;99.90;;;;;;5013911;28;20265;-77
2022/01/25 12:30:12;;;;;;;22.87;14.83;;;7.40;99.90;;;;;;5015023;28;20180;-76
2022/01/25 12:32:51;;;;;;;26.20;13.47;;;7.30;99.90;;;;;;5032746;28;20185;-77
2022/01/25 12:35:19;;;;;;;22.33;13.87;;;7.20;99.90;;;;;;5014232;28;20174;-84
2022/01/25 12:37:48;;;;;;;24.40;15.30;;;7.20;99.90;;;;;;5014237;28;20178;-82
2022/01/25 12:40:29;;;;;;;23.13;13.80;;;7.10;99.90;;;;;;5031876;28;20197;-84
2022/01/25 12:43:06;;;;;;;24.83;14.57;;;7.00;99.90;;;;;;5016571;28;20227;-77
2022/01/25 12:45:53;;;;;;;21.97;14.47;;;7.10;99.90;;;;;;5031630;28;20174;-84
2022/01/25 12:48:29;;;;;;;22.00;14.23;;;7.10;99.90;;;;;;5014009;28;20166;-83
2022/01/25 12:51:01;;;;;;;24.33;14.43;;;7.10;99.90;;;;;;4993415;28;20190;-78
2022/01/25 12:53:32;;;;;;;26.20;14.20;;;7.10;99.90;;;;;;4993095;28;20190;-77
2022/01/25 12:56:03;;;;;;;26.20;13.97;;;7.40;99.90;;;;;;4999084;28;20220;-82
2022/01/25 12:58:31;;;;;;;20.70;13.33;;;7.20;99.90;;;;;;5030758;28;20182;-77
2022/01/25 13:01:00;;;;;;;24.67;14.87;;;7.20;99.90;;;;;;5013459;28;20217;-83
2022/01/25 13:03:35;;;;;;;26.17;15.40;;;7.40;99.90;;;;;;5029987;28;20174;-77
2022/01/25 13:06:12;;;;;;;30.03;15.03;;;7.60;99.90;;;;;;5029742;28;20183;-84
2022/01/25 13:08:54;;;;;;;23.83;14.33;;;7.40;99.90;;;;;;5030854;28;20173;-85
2022/01/25 13:11:41;;;;;;;23.80;14.30;;;7.60;99.90;;;;;;5030578;28;20656;-83
2022/01/25 13:16:54;;;;;;;22.87;14.43;;;7.60;99.90;;;;;;5015396;28;20340;-82
2022/01/25 13:19:26;;;;;;;21.23;13.47;;;7.60;99.90;;;;;;5013100;28;20528;-76
2022/01/25 13:21:59;;;;;;;26.20;15.03;;;7.70;99.90;;;;;;5013560;28;20208;-76
2022/01/25 13:24:31;;;;;;;22.67;14.37;;;7.70;99.90;;;;;;4997925;28;20664;-78
2022/01/25 13:27:08;;;;;;;25.87;14.83;;;7.80;99.90;;;;;;5030987;28;20197;-76
2022/01/25 13:32:24;;;;;;;25.23;15.87;;;7.70;99.90;;;;;;5031304;28;20174;-82
2022/01/25 13:35:25;;;;;;;26.47;14.47;;;7.60;99.90;;;;;;4997799;28;20204;-77
2022/01/25 13:38:14;;;;;;;24.60;13.20;;;7.50;99.90;;;;;;5014817;28;20174;-85
2022/01/25 13:40:54;;;;;;;24.73;14.67;;;7.50;99.90;;;;;;5013091;28;20205;-76
2022/01/25 13:46:37;;;;;;;21.30;13.77;;;7.50;99.90;;;;;;5015254;28;20508;-81
2022/01/25 13:49:25;;;;;;;22.47;13.93;;;7.50;99.90;;;;;;5027554;28;20659;-82
2022/01/25 13:51:54;;;;;;;24.57;14.43;;;7.50;99.90;;;;;;5016372;28;20192;-83
2022/01/25 13:54:25;;;;;;;29.83;17.00;;;7.40;99.90;;;;;;5013617;28;20178;-77
2022/01/25 13:56:53;;;;;;;28.50;15.10;;;7.40;99.90;;;;;;5030986;28;20174;-77
2022/01/25 13:59:21;;;;;;;24.23;14.03;;;7.40;99.90;;;;;;4996558;28;20680;-82
2022/01/25 14:01:53;;;;;;;26.23;14.53;;;7.50;99.90;;;;;;4997812;28;20276;-83
2022/01/25 14:04:26;;;;;;;26.40;14.50;;;7.30;99.90;;;;;;4997390;28;20245;-79
2022/01/25 14:06:55;;;;;;;24.57;14.50;;;7.20;99.90;;;;;;5030142;28;20174;-77
2022/01/25 14:09:33;;;;;;;25.47;15.03;;;7.10;99.90;;;;;;5031851;28;20248;-83
2022/01/25 14:23:35;;;;;;;26.57;15.27;;;6.60;99.90;;;;;;5015883;28;20170;-84
2022/01/25 14:25:47;;;;;;;25.63;14.80;;;6.50;99.90;;;;;;5015847;28;20721;-82
2022/01/25 14:28:17;;;;;;;29.37;16.27;;;6.50;99.90;;;;;;5015352;28;20182;-81
2022/01/25 14:30:47;;;;;;;35.30;18.20;;;6.40;99.90;;;;;;5001045;28;20243;-84
2022/01/25 14:33:21;;;;;;;26.07;15.27;;;6.40;99.90;;;;;;5034087;28;20186;-78
2022/01/25 14:36:09;;;;;;;28.40;15.07;;;6.30;99.90;;;;;;5035093;28;20193;-83
2022/01/25 14:38:48;;;;;;;32.33;16.60;;;6.10;99.90;;;;;;5033700;28;20169;-82
2022/01/25 14:41:17;;;;;;;31.17;16.27;;;6.20;99.90;;;;;;5030759;28;20229;-82
2022/01/25 14:43:54;;;;;;;31.67;16.87;;;6.00;99.90;;;;;;5001841;28;20247;-78
2022/01/25 14:46:38;;;;;;;29.07;16.20;;;5.90;99.90;;;;;;5033898;28;20213;-77
2022/01/25 14:49:10;;;;;;;30.93;16.23;;;6.00;99.90;;;;;;5017696;28;20606;-82
2022/01/25 14:51:40;;;;;;;31.37;16.43;;;5.80;99.90;;;;;;5016161;28;20185;-76
2022/01/25 14:54:08;;;;;;;30.90;17.13;;;5.70;99.90;;;;;;5032135;28;20502;-79
2022/01/25 14:56:37;;;;;;;31.77;16.77;;;5.60;99.90;;;;;;5015781;28;20181;-85
2022/01/25 14:59:25;;;;;;;31.93;17.20;;;5.60;99.90;;;;;;5016191;28;20732;-78
2022/01/25 15:02:13;;;;;;;33.47;15.80;;;5.70;99.90;;;;;;5033744;28;20205;-84